createdAt,value
2023-04-18T00:01:38.359Z,20.38
2023-04-18T00:04:05.546Z,19.55
2023-04-18T00:06:32.713Z,19.58
2023-04-18T00:08:59.494Z,20.05
2023-04-18T00:11:26.546Z,18.83
2023-04-18T00:13:53.524Z,18.60
2023-04-18T00:16:20.891Z,18.98
2023-04-18T00:18:48.155Z,17.35
2023-04-18T00:21:15.031Z,19.05
2023-04-18T00:23:41.790Z,21.08
2023-04-18T00:26:08.644Z,19.63
2023-04-18T00:28:35.372Z,18.40
2023-04-18T00:31:02.174Z,18.17
2023-04-18T00:33:28.930Z,19.23
2023-04-18T00:35:55.657Z,18.23
2023-04-18T00:38:22.401Z,17.20
2023-04-18T00:40:49.116Z,18.38
2023-04-18T00:43:16.918Z,21.25
2023-04-18T00:45:44.762Z,18.50
2023-04-18T00:48:11.615Z,20.67
2023-04-18T00:50:38.557Z,20.70
2023-04-18T00:53:05.239Z,21.45
2023-04-18T00:55:32.001Z,20.38
2023-04-18T00:57:58.723Z,21.02
2023-04-18T01:00:25.449Z,20.10
2023-04-18T01:02:54.052Z,20.10
2023-04-18T01:05:21.621Z,22.27
2023-04-18T01:07:48.427Z,20.52
2023-04-18T01:10:15.894Z,20.42
2023-04-18T01:12:42.585Z,20.25
2023-04-18T01:15:09.398Z,21.30
2023-04-18T01:17:36.753Z,22.83
2023-04-18T01:20:06.286Z,20.95
2023-04-18T01:22:33.132Z,21.92
2023-04-18T01:25:00.590Z,18.75
2023-04-18T01:27:27.738Z,18.10
2023-04-18T01:29:54.604Z,20.33
2023-04-18T01:32:21.974Z,20.48
2023-04-18T01:34:48.765Z,20.17
2023-04-18T01:37:15.483Z,18.35
2023-04-18T01:39:42.178Z,19.88
2023-04-18T01:42:08.882Z,20.90
2023-04-18T01:44:35.704Z,20.77
2023-04-18T01:47:02.731Z,19.20
2023-04-18T01:49:29.444Z,19.63
2023-04-18T01:51:56.185Z,19.10
2023-04-18T01:54:22.946Z,20.25
2023-04-18T01:56:49.666Z,18.90
2023-04-18T01:59:16.357Z,20.25
2023-04-18T02:01:43.347Z,19.63
2023-04-18T02:04:10.212Z,19.52
2023-04-18T02:06:36.993Z,20.27
2023-04-18T02:09:03.738Z,18.48
2023-04-18T02:11:30.586Z,18.90
2023-04-18T02:13:59.521Z,19.58
2023-04-18T02:16:26.490Z,18.73
2023-04-18T02:18:53.482Z,20.08
2023-04-18T02:21:21.850Z,19.60
2023-04-18T02:23:48.839Z,20.83
2023-04-18T02:26:15.685Z,19.52
2023-04-18T02:28:42.421Z,17.55
2023-04-18T02:31:14.513Z,19.38
2023-04-18T02:33:42.850Z,19.33
2023-04-18T02:36:10.125Z,18.33
2023-04-18T02:38:36.783Z,20.08
2023-04-18T02:41:03.684Z,19.50
2023-04-18T02:43:30.523Z,19.77
2023-04-18T02:45:57.246Z,19.85
2023-04-18T02:48:24.082Z,19.35
2023-04-18T02:50:50.833Z,19.27
2023-04-18T02:53:17.494Z,20.23
2023-04-18T02:55:44.357Z,19.98
2023-04-18T02:58:11.318Z,20.25
2023-04-18T03:00:38.099Z,18.67
2023-04-18T03:03:05.540Z,20.55
2023-04-18T03:05:32.306Z,19.33
2023-04-18T03:07:58.947Z,19.55
2023-04-18T03:10:25.700Z,19.30
2023-04-18T03:12:52.331Z,18.35
2023-04-18T03:15:19.084Z,18.83
2023-04-18T03:17:45.829Z,19.75
2023-04-18T03:20:12.738Z,16.48
2023-04-18T03:22:40.595Z,18.38
2023-04-18T03:25:08.552Z,17.33
2023-04-18T03:27:35.483Z,18.35
2023-04-18T03:30:02.618Z,18.45
2023-04-18T03:32:29.408Z,19.85
2023-04-18T03:34:56.245Z,17.58
2023-04-18T03:37:22.959Z,19.08
2023-04-18T03:39:49.704Z,18.80
2023-04-18T03:42:17.511Z,19.02
2023-04-18T03:44:44.154Z,17.17
2023-04-18T03:47:11.262Z,19.88
2023-04-18T03:49:39.009Z,16.63
2023-04-18T03:52:05.661Z,18.55
2023-04-18T03:54:32.328Z,16.38
2023-04-18T03:56:59.857Z,17.10
2023-04-18T03:59:26.805Z,18.38
2023-04-18T04:01:53.623Z,17.13
2023-04-18T04:04:20.523Z,18.52
2023-04-18T04:06:47.620Z,17.35
2023-04-18T04:09:14.323Z,18.52
2023-04-18T04:11:41.077Z,18.52
2023-04-18T04:14:07.865Z,18.50
2023-04-18T04:16:35.089Z,20.25
2023-04-18T04:19:01.841Z,16.35
2023-04-18T04:21:30.652Z,18.27
2023-04-18T04:23:57.661Z,17.43
2023-04-18T04:26:26.130Z,18.00
2023-04-18T04:28:53.521Z,19.33
2023-04-18T04:31:22.225Z,17.20
2023-04-18T04:33:48.999Z,18.38
2023-04-18T04:36:18.637Z,16.75
2023-04-18T04:38:45.802Z,19.17
2023-04-18T04:41:12.722Z,16.80
2023-04-18T04:43:41.220Z,16.15
2023-04-18T04:46:08.745Z,17.75
2023-04-18T04:48:35.576Z,19.67
2023-04-18T04:51:02.604Z,18.00
2023-04-18T04:53:32.535Z,18.35
2023-04-18T04:55:59.307Z,16.45
2023-04-18T04:58:26.351Z,18.23
2023-04-18T05:00:53.933Z,20.10
2023-04-18T05:03:21.102Z,18.45
2023-04-18T05:05:47.975Z,17.88
2023-04-18T05:08:14.645Z,17.90
2023-04-18T05:10:42.543Z,18.50
2023-04-18T05:13:09.298Z,17.80
2023-04-18T05:15:35.990Z,20.45
2023-04-18T05:18:02.783Z,19.08
2023-04-18T05:20:29.880Z,18.90
2023-04-18T05:22:56.949Z,18.58
2023-04-18T05:25:23.993Z,18.75
2023-04-18T05:27:51.026Z,19.52
2023-04-18T05:30:17.798Z,18.33
2023-04-18T05:32:44.774Z,18.02
2023-04-18T05:35:11.559Z,18.40
2023-04-18T05:37:38.688Z,19.20
2023-04-18T05:40:06.610Z,17.80
2023-04-18T05:42:33.360Z,19.77
2023-04-18T05:45:03.016Z,19.52
2023-04-18T05:49:57.833Z,18.58
2023-04-18T05:52:26.085Z,18.02
2023-04-18T05:54:53.079Z,18.30
2023-04-18T05:57:19.781Z,18.40
2023-04-18T05:59:46.459Z,19.00
2023-04-18T06:02:13.651Z,18.08
2023-04-18T06:04:42.338Z,19.50
2023-04-18T06:07:09.921Z,21.03
2023-04-18T06:09:36.864Z,17.95
2023-04-18T06:12:03.817Z,18.05
2023-04-18T06:14:31.024Z,18.80
2023-04-18T06:16:57.905Z,19.75
2023-04-18T06:19:25.052Z,20.13
2023-04-18T06:21:52.851Z,20.02
2023-04-18T06:24:19.614Z,20.20
2023-04-18T06:26:46.480Z,20.17
2023-04-18T06:29:13.257Z,20.45
2023-04-18T06:31:41.163Z,19.13
2023-04-18T06:34:08.213Z,20.25
2023-04-18T06:36:34.918Z,20.85
2023-04-18T06:39:02.332Z,20.20
2023-04-18T06:41:28.983Z,18.85
2023-04-18T06:44:03.511Z,19.98
2023-04-18T06:46:41.828Z,20.55
2023-04-18T06:49:08.493Z,18.42
2023-04-18T06:51:35.209Z,20.05
2023-04-18T06:54:03.040Z,19.98
2023-04-18T06:56:29.794Z,19.10
2023-04-18T06:58:56.443Z,18.30
2023-04-18T07:01:23.197Z,21.13
2023-04-18T07:03:50.315Z,21.27
2023-04-18T07:06:17.477Z,20.17
2023-04-18T07:08:44.449Z,19.80
2023-04-18T07:11:13.287Z,19.45
2023-04-18T07:13:39.969Z,19.10
2023-04-18T07:16:07.130Z,19.50
2023-04-18T07:18:38.123Z,19.35
2023-04-18T07:21:07.421Z,19.50
2023-04-18T07:23:34.973Z,18.58
2023-04-18T07:26:03.005Z,18.77
2023-04-18T07:28:30.677Z,18.25
2023-04-18T07:30:57.553Z,18.65
2023-04-18T07:33:24.655Z,19.38
2023-04-18T07:35:52.404Z,18.73
2023-04-18T07:38:19.072Z,19.23
2023-04-18T07:40:45.955Z,18.35
2023-04-18T07:43:12.588Z,18.35
2023-04-18T07:45:39.309Z,18.10
2023-04-18T07:48:06.448Z,17.30
2023-04-18T07:50:33.132Z,16.02
2023-04-18T07:53:01.294Z,17.45
2023-04-18T07:55:27.966Z,16.85
2023-04-18T07:57:54.612Z,16.73
2023-04-18T08:00:21.466Z,17.08
2023-04-18T08:02:48.341Z,17.30
2023-04-18T08:05:15.414Z,16.55
2023-04-18T08:07:42.299Z,15.90
2023-04-18T08:10:09.922Z,16.00
2023-04-18T08:12:36.714Z,15.68
2023-04-18T08:15:04.241Z,16.05
2023-04-18T08:17:31.774Z,14.73
2023-04-18T08:19:58.730Z,15.57
2023-04-18T08:22:25.581Z,15.63
2023-04-18T08:27:24.187Z,15.23
2023-04-18T08:29:51.011Z,14.43
2023-04-18T08:32:17.907Z,14.98
2023-04-18T08:34:44.584Z,16.75
2023-04-18T08:37:11.316Z,13.43
2023-04-18T08:39:37.999Z,12.63
2023-04-18T08:42:05.266Z,12.82
2023-04-18T08:44:32.819Z,12.70
2023-04-18T08:47:00.139Z,12.80
2023-04-18T08:49:28.593Z,13.85
2023-04-18T08:51:57.494Z,12.68
2023-04-18T08:54:27.250Z,11.65
2023-04-18T08:57:07.393Z,11.93
2023-04-18T08:59:36.604Z,12.35
2023-04-18T09:02:04.258Z,11.07
2023-04-18T09:04:31.164Z,11.85
2023-04-18T09:06:58.064Z,12.50
2023-04-18T09:09:27.576Z,11.82
2023-04-18T09:14:43.167Z,10.48
2023-04-18T09:17:14.974Z,10.25
2023-04-18T09:19:46.372Z,9.93
2023-04-18T09:22:13.283Z,10.10
2023-04-18T09:24:40.128Z,10.38
2023-04-18T09:27:11.985Z,10.35
2023-04-18T09:29:49.966Z,9.57
2023-04-18T09:32:25.159Z,10.85
2023-04-18T09:34:54.517Z,10.05
2023-04-18T09:37:21.731Z,8.82
2023-04-18T09:39:49.892Z,9.15
2023-04-18T09:42:16.734Z,8.05
2023-04-18T09:45:04.025Z,10.27
2023-04-18T09:47:32.260Z,8.73
2023-04-18T09:49:59.472Z,9.20
2023-04-18T09:52:26.293Z,8.70
2023-04-18T09:54:58.187Z,8.55
2023-04-18T09:57:27.350Z,8.75
2023-04-18T10:00:02.323Z,8.85
2023-04-18T10:02:31.233Z,10.15
2023-04-18T10:04:58.913Z,9.05
2023-04-18T10:07:26.308Z,8.85
2023-04-18T10:09:53.572Z,9.65
2023-04-18T10:12:20.573Z,8.15
2023-04-18T10:14:47.268Z,8.10
2023-04-18T10:17:14.839Z,8.52
2023-04-18T10:19:42.036Z,8.95
2023-04-18T10:22:08.811Z,8.77
2023-04-18T10:24:53.886Z,8.07
2023-04-18T10:27:49.005Z,7.78
2023-04-18T10:30:16.502Z,8.27
2023-04-18T10:32:43.355Z,9.90
2023-04-18T10:35:10.822Z,7.38
2023-04-18T10:37:52.852Z,7.93
2023-04-18T10:40:39.899Z,7.63
2023-04-18T10:43:07.356Z,7.15
2023-04-18T10:45:36.492Z,7.45
2023-04-18T10:48:25.860Z,7.35
2023-04-18T10:51:12.562Z,8.27
2023-04-18T10:53:39.303Z,6.65
2023-04-18T10:56:06.096Z,7.72
2023-04-18T10:58:32.929Z,7.00
2023-04-18T11:01:00.674Z,6.60
2023-04-18T11:03:34.552Z,6.65
2023-04-18T11:06:02.866Z,6.43
2023-04-18T11:08:30.418Z,5.85
2023-04-18T11:11:00.434Z,5.53
2023-04-18T11:13:28.441Z,6.13
2023-04-18T11:15:55.201Z,7.60
2023-04-18T11:18:21.988Z,4.85
2023-04-18T11:20:49.983Z,6.00
2023-04-18T11:23:18.745Z,5.30
2023-04-18T11:25:45.430Z,8.80
2023-04-18T11:28:13.554Z,5.05
2023-04-18T11:30:40.941Z,5.65
2023-04-18T11:33:14.225Z,5.90
2023-04-18T11:35:42.276Z,5.68
2023-04-18T11:38:10.271Z,5.50
2023-04-18T11:40:37.159Z,5.72
2023-04-18T11:43:06.073Z,6.70
2023-04-18T11:45:33.165Z,6.80
2023-04-18T11:48:00.863Z,8.10
2023-04-18T11:50:27.818Z,7.70
2023-04-18T11:52:56.335Z,7.75
2023-04-18T11:55:25.102Z,7.30
2023-04-18T11:57:56.094Z,7.10
2023-04-18T12:00:39.536Z,8.20
2023-04-18T12:03:11.801Z,7.18
2023-04-18T12:06:02.845Z,6.88
2023-04-18T12:08:32.523Z,7.28
2023-04-18T12:10:59.598Z,7.20
2023-04-18T12:13:27.396Z,8.90
2023-04-18T12:15:54.529Z,8.35
2023-04-18T12:18:21.673Z,9.15
2023-04-18T12:20:54.350Z,8.32
2023-04-18T12:23:37.103Z,7.32
2023-04-18T12:26:08.448Z,8.93
2023-04-18T12:28:35.627Z,7.28
2023-04-18T12:31:02.622Z,8.73
2023-04-18T12:33:30.085Z,9.52
2023-04-18T12:35:56.824Z,7.18
2023-04-18T12:38:23.765Z,7.93
2023-04-18T12:40:51.210Z,7.55
2023-04-18T12:43:18.237Z,6.70
2023-04-18T12:45:45.802Z,7.22
2023-04-18T12:48:12.520Z,6.40
2023-04-18T12:50:39.767Z,7.07
2023-04-18T12:53:06.673Z,7.88
2023-04-18T12:55:33.829Z,7.22
2023-04-18T12:58:00.912Z,6.47
2023-04-18T13:00:29.278Z,6.78
2023-04-18T13:02:59.279Z,7.53
2023-04-18T13:05:29.169Z,6.53
2023-04-18T13:08:15.128Z,6.85
2023-04-18T13:10:43.837Z,5.70
2023-04-18T13:13:10.690Z,6.38
2023-04-18T13:15:37.468Z,5.93
2023-04-18T13:18:06.340Z,5.82
2023-04-18T13:20:33.739Z,5.68
2023-04-18T13:23:16.848Z,7.32
2023-04-18T13:25:43.611Z,8.18
2023-04-18T13:28:10.268Z,4.80
2023-04-18T13:30:37.038Z,5.78
2023-04-18T13:33:03.894Z,5.18
2023-04-18T13:35:30.635Z,5.05
2023-04-18T13:38:00.250Z,5.72
2023-04-18T13:42:53.866Z,5.10
2023-04-18T13:45:21.015Z,4.82
2023-04-18T13:47:47.853Z,4.90
2023-04-18T13:50:14.598Z,5.13
2023-04-18T13:52:41.374Z,4.78
2023-04-18T13:55:10.453Z,4.90
2023-04-18T13:57:37.411Z,4.60
2023-04-18T14:00:09.146Z,5.25
2023-04-18T14:02:36.151Z,4.95
2023-04-18T14:05:03.092Z,4.35
2023-04-18T14:07:30.040Z,4.22
2023-04-18T14:09:57.342Z,4.53
2023-04-18T14:12:24.737Z,4.15
2023-04-18T14:14:51.470Z,4.63
2023-04-18T14:17:18.228Z,4.32
2023-04-18T14:19:44.934Z,4.63
2023-04-18T14:22:12.259Z,4.28
2023-04-18T14:24:39.597Z,3.63
2023-04-18T14:27:06.316Z,4.05
2023-04-18T14:29:32.974Z,4.55
2023-04-18T14:31:59.958Z,6.18
2023-04-18T14:34:26.822Z,4.65
2023-04-18T14:36:53.585Z,3.88
2023-04-18T14:39:20.477Z,5.65
2023-04-18T14:41:47.207Z,4.90
2023-04-18T14:44:13.920Z,4.90
2023-04-18T14:46:41.830Z,5.32
2023-04-18T14:49:08.540Z,5.00
2023-04-18T14:51:35.226Z,5.97
2023-04-18T14:54:02.001Z,5.40
2023-04-18T14:56:28.762Z,5.70
2023-04-18T14:58:55.515Z,5.35
2023-04-18T15:01:22.359Z,5.53
2023-04-18T15:03:50.783Z,5.15
2023-04-18T15:06:17.594Z,5.55
2023-04-18T15:08:44.416Z,5.00
2023-04-18T15:11:11.305Z,5.72
2023-04-18T15:13:38.140Z,6.28
2023-04-18T15:16:05.318Z,5.80
2023-04-18T15:18:32.031Z,5.45
2023-04-18T15:21:01.618Z,6.53
2023-04-18T15:25:54.937Z,7.88
2023-04-18T15:28:21.636Z,7.15
2023-04-18T15:30:48.392Z,7.60
2023-04-18T15:33:15.749Z,8.43
2023-04-18T15:35:42.563Z,8.10
2023-04-18T15:38:09.373Z,8.82
2023-04-18T15:40:36.480Z,9.57
2023-04-18T15:43:04.034Z,9.77
2023-04-18T15:45:30.862Z,9.02
2023-04-18T15:47:57.607Z,11.63
2023-04-18T15:50:24.465Z,10.05
2023-04-18T15:52:51.234Z,10.23
2023-04-18T15:55:17.952Z,9.30
2023-04-18T15:57:44.935Z,11.02
2023-04-18T16:00:20.833Z,10.85
2023-04-18T16:02:47.652Z,10.90
2023-04-18T16:05:15.401Z,11.02
2023-04-18T16:07:42.575Z,10.93
2023-04-18T16:10:10.577Z,11.20
2023-04-18T16:12:37.905Z,11.77
2023-04-18T16:15:08.969Z,12.57
2023-04-18T16:17:36.420Z,11.90
2023-04-18T16:20:03.673Z,11.27
2023-04-18T16:22:30.409Z,11.20
2023-04-18T16:24:57.125Z,11.95
2023-04-18T16:27:23.819Z,12.27
2023-04-18T16:29:50.632Z,11.60
2023-04-18T16:32:17.305Z,13.52
2023-04-18T16:34:44.085Z,12.90
2023-04-18T16:37:11.148Z,12.40
2023-04-18T16:39:37.820Z,13.52
2023-04-18T16:42:09.826Z,13.25
2023-04-18T16:44:36.575Z,11.63
2023-04-18T16:47:04.996Z,11.77
2023-04-18T16:49:32.181Z,12.32
2023-04-18T16:51:58.926Z,13.13
2023-04-18T16:54:25.635Z,13.65
2023-04-18T16:56:52.266Z,11.73
2023-04-18T16:59:19.817Z,12.73
2023-04-18T17:01:46.926Z,11.88
2023-04-18T17:04:15.335Z,11.75
2023-04-18T17:06:43.683Z,12.60
2023-04-18T17:09:13.358Z,13.77
2023-04-18T17:11:41.089Z,12.25
2023-04-18T17:14:08.592Z,12.45
2023-04-18T17:16:37.975Z,12.90
2023-04-18T17:19:04.865Z,11.68
2023-04-18T17:21:32.489Z,13.32
2023-04-18T17:24:03.507Z,11.88
2023-04-18T17:26:31.058Z,12.65
2023-04-18T17:28:57.864Z,11.45
2023-04-18T17:31:24.556Z,12.60
2023-04-18T17:33:51.913Z,12.65
2023-04-18T17:36:19.098Z,11.43
2023-04-18T17:38:48.865Z,11.48
2023-04-18T17:41:16.463Z,10.65
2023-04-18T17:43:43.883Z,11.25
2023-04-18T17:46:11.212Z,11.20
2023-04-18T17:48:38.197Z,11.38
2023-04-18T17:51:05.204Z,11.90
2023-04-18T17:53:32.410Z,11.77
2023-04-18T17:56:00.036Z,11.25
2023-04-18T17:58:26.985Z,11.25
2023-04-18T18:00:53.708Z,11.93
2023-04-18T18:03:20.707Z,10.95
2023-04-18T18:05:48.527Z,11.57
2023-04-18T18:08:15.356Z,11.07
2023-04-18T18:10:42.618Z,11.80
2023-04-18T18:13:09.399Z,10.95
2023-04-18T18:15:36.237Z,11.02
2023-04-18T18:18:03.155Z,10.00
2023-04-18T18:20:30.713Z,11.57
2023-04-18T18:22:59.773Z,9.45
2023-04-18T18:25:27.432Z,10.80
2023-04-18T18:27:54.551Z,10.15
2023-04-18T18:30:21.340Z,10.25
2023-04-18T18:32:48.077Z,10.50
2023-04-18T18:35:14.752Z,10.57
2023-04-18T18:37:41.488Z,9.93
2023-04-18T18:40:09.040Z,9.18
2023-04-18T18:42:36.180Z,12.70
2023-04-18T18:45:03.565Z,10.40
2023-04-18T18:47:30.638Z,10.18
2023-04-18T18:49:58.303Z,9.32
2023-04-18T18:52:25.258Z,10.07
2023-04-18T18:54:52.847Z,10.45
2023-04-18T18:57:19.586Z,11.55
2023-04-18T18:59:46.493Z,10.90
2023-04-18T19:02:13.935Z,11.25
2023-04-18T19:04:40.854Z,11.20
2023-04-18T19:07:07.979Z,11.25
2023-04-18T19:09:37.104Z,10.88
2023-04-18T19:12:04.993Z,12.65
2023-04-18T19:14:32.263Z,11.30
2023-04-18T19:16:58.969Z,12.82
2023-04-18T19:19:25.947Z,10.80
2023-04-18T19:21:52.648Z,11.43
2023-04-18T19:24:19.386Z,9.88
2023-04-18T19:26:46.047Z,11.75
2023-04-18T19:29:14.310Z,11.63
2023-04-18T19:31:43.618Z,11.23
2023-04-18T19:34:10.850Z,10.00
2023-04-18T19:36:37.934Z,10.57
2023-04-18T19:39:04.633Z,11.40
2023-04-18T19:41:31.655Z,10.73
2023-04-18T19:43:58.316Z,11.32
2023-04-18T19:46:25.020Z,11.25
2023-04-18T19:48:52.085Z,11.02
2023-04-18T19:51:18.761Z,11.30
2023-04-18T19:53:46.284Z,11.82
2023-04-18T19:56:15.152Z,11.00
2023-04-18T19:58:46.656Z,11.05
2023-04-18T20:01:14.019Z,12.10
2023-04-18T20:03:41.179Z,12.13
2023-04-18T20:06:08.300Z,11.52
2023-04-18T20:08:36.317Z,11.70
2023-04-18T20:11:04.292Z,12.13
2023-04-18T20:13:30.965Z,11.75
2023-04-18T20:15:57.636Z,12.55
2023-04-18T20:18:24.350Z,11.05
2023-04-18T20:20:51.312Z,11.02
2023-04-18T20:23:18.120Z,10.95
2023-04-18T20:25:44.822Z,11.90
2023-04-18T20:28:11.622Z,11.13
2023-04-18T20:30:38.388Z,12.15
2023-04-18T20:33:05.493Z,11.07
2023-04-18T20:35:32.303Z,12.35
2023-04-18T20:38:00.323Z,12.00
2023-04-18T20:40:27.749Z,11.70
2023-04-18T20:42:57.727Z,13.15
2023-04-18T20:45:27.780Z,11.23
2023-04-18T20:47:54.546Z,11.40
2023-04-18T20:50:21.278Z,12.68
2023-04-18T20:52:48.047Z,11.90
2023-04-18T20:55:16.723Z,12.50
2023-04-18T20:57:43.584Z,13.15
2023-04-18T21:00:11.022Z,11.73
2023-04-18T21:02:37.862Z,12.85
2023-04-18T21:05:05.214Z,11.60
2023-04-18T21:07:32.433Z,13.15
2023-04-18T21:09:59.237Z,12.63
2023-04-18T21:12:26.842Z,13.32
2023-04-18T21:14:53.682Z,12.88
2023-04-18T21:17:20.407Z,13.88
2023-04-18T21:19:47.579Z,12.20
2023-04-18T21:22:14.956Z,13.00
2023-04-18T21:24:41.958Z,13.13
2023-04-18T21:27:08.781Z,11.82
2023-04-18T21:29:35.851Z,13.70
2023-04-18T21:32:02.628Z,12.05
2023-04-18T21:34:29.346Z,12.40
2023-04-18T21:36:57.712Z,15.07
2023-04-18T21:39:24.499Z,13.30
2023-04-18T21:41:51.183Z,13.13
2023-04-18T21:44:18.884Z,14.27
2023-04-18T21:46:45.713Z,13.25
2023-04-18T21:49:12.768Z,13.57
2023-04-18T21:51:39.468Z,13.63
2023-04-18T21:54:07.768Z,12.38
2023-04-18T21:56:34.447Z,14.38
2023-04-18T21:59:01.139Z,13.07
2023-04-18T22:01:27.952Z,15.07
2023-04-18T22:03:54.890Z,14.63
2023-04-18T22:06:23.053Z,14.05
2023-04-18T22:08:50.076Z,12.73
2023-04-18T22:11:18.951Z,14.13
2023-04-18T22:13:45.914Z,12.80
2023-04-18T22:16:12.740Z,14.50
2023-04-18T22:18:39.492Z,14.13
2023-04-18T22:21:06.666Z,14.40
2023-04-18T22:23:34.214Z,14.20
2023-04-18T22:26:00.989Z,14.45
2023-04-18T22:28:30.837Z,14.40
2023-04-18T22:30:57.660Z,15.77
2023-04-18T22:33:24.483Z,14.93
2023-04-18T22:35:51.410Z,14.35
2023-04-18T22:38:18.143Z,14.02
2023-04-18T22:40:44.771Z,15.23
2023-04-18T22:43:11.437Z,14.18
2023-04-18T22:45:38.193Z,14.93
2023-04-18T22:48:05.277Z,14.00
2023-04-18T22:50:31.976Z,14.23
2023-04-18T22:52:58.607Z,13.38
2023-04-18T22:55:25.353Z,14.50
2023-04-18T22:57:51.997Z,14.15
2023-04-18T23:00:18.834Z,17.42
2023-04-18T23:02:45.724Z,16.20
2023-04-18T23:05:15.415Z,14.02
2023-04-18T23:07:42.182Z,14.43
2023-04-18T23:10:09.521Z,14.60
2023-04-18T23:12:36.128Z,14.05
2023-04-18T23:15:02.779Z,14.25
2023-04-18T23:17:29.475Z,16.35
2023-04-18T23:19:56.214Z,16.25
2023-04-18T23:22:24.321Z,13.85
2023-04-18T23:24:51.475Z,15.18
2023-04-18T23:27:19.041Z,15.32
2023-04-18T23:29:47.616Z,14.88
2023-04-18T23:32:14.301Z,15.43
2023-04-18T23:34:41.000Z,15.10
2023-04-18T23:37:08.921Z,14.70
2023-04-18T23:39:35.786Z,14.98
2023-04-18T23:42:02.483Z,16.23
2023-04-18T23:44:29.256Z,14.95
2023-04-18T23:46:55.972Z,15.35
2023-04-18T23:49:22.681Z,16.13
2023-04-18T23:51:49.396Z,15.15
2023-04-18T23:54:16.250Z,15.93
2023-04-18T23:56:43.064Z,17.52
2023-04-18T23:59:09.743Z,16.42
